Time;durP1;ratioP1;P1;durP2;ratioP2;P2;SDS_P1;SDS_P2;PMS_P1;PMS_P2;Temp;Humidity;BMP_temperature;BMP_pressure;BME280_temperature;BME280_humidity;BME280_pressure;Samples;Min_cycle;Max_cycle;Signal;HPM_P1;HPM_P2
2021/06/17 00:01:07;;;;;;;;;;;;;;;24.49;51.94;100762.81;5155786;27;1944;-60
2021/06/17 00:03:32;;;;;;;;;;;;;;;24.47;52.06;100764.03;5156280;27;997;-59
2021/06/17 00:05:58;;;;;;;;;;;;;;;24.46;52.08;100763.19;5156185;27;995;-59
2021/06/17 00:08:23;;;;;;;;;;;;;;;24.46;52.16;100768.63;5141433;27;1696;-60
2021/06/17 00:10:48;;;;;;;;;;;;;;;24.48;52.11;100773.88;5135183;28;791;-60
2021/06/17 00:13:13;;;;;;;;;;;;;;;24.48;52.17;100768.44;5135595;28;997;-60
2021/06/17 00:15:38;;;;;;;;;;;;;;;24.44;51.89;100761.69;5135110;27;1619;-60
2021/06/17 00:18:03;;;;;;;;;;;;;;;24.42;52.10;100769.19;5135710;28;996;-60
2021/06/17 00:20:28;;;;;;;;;;;;;;;24.43;51.93;100773.63;5135078;28;1914;-59
2021/06/17 00:22:53;;;;;;;;;;;;;;;24.40;52.43;100763.94;5135086;28;806;-60
2021/06/17 00:25:18;;;;;;;;;;;;;;;24.40;52.04;100768.53;5135157;28;613;-61
2021/06/17 00:27:43;;;;;;;;;;;;;;;24.41;52.28;100760.19;5145408;27;1598;-60
2021/06/17 00:30:08;;;;;;;;;;;;;;;24.38;52.13;100766.00;5155600;27;1607;-59
2021/06/17 00:32:34;;;;;;;;;;;;;;;24.38;52.21;100768.72;5155812;27;874;-60
2021/06/17 00:34:59;;;;;;;;;;;;;;;24.39;52.17;100764.13;5155637;27;854;-60
2021/06/17 00:37:24;;;;;;;;;;;;;;;24.41;52.55;100767.50;5158821;27;1060;-60
2021/06/17 00:39:49;;;;;;;;;;;;;;;24.41;52.71;100764.78;5159508;27;957;-60
2021/06/17 00:42:14;;;;;;;;;;;;;;;24.36;52.46;100762.66;5159289;27;1885;-60
2021/06/17 00:44:39;;;;;;;;;;;;;;;24.32;52.48;100750.44;5159346;27;882;-60
2021/06/17 00:47:04;;;;;;;;;;;;;;;24.36;52.92;100757.22;5151550;27;1629;-60
2021/06/17 00:49:29;;;;;;;;;;;;;;;24.35;52.78;100750.06;5138813;27;913;-60
2021/06/17 00:51:54;;;;;;;;;;;;;;;24.35;52.96;100757.41;5138613;27;968;-60
2021/06/17 00:54:31;;;;;;;;;;;;;;;24.34;52.68;100758.44;5138512;27;921;-61
2021/06/17 00:56:56;;;;;;;;;;;;;;;24.31;53.11;100743.31;5138658;27;1638;-61
2021/06/17 00:59:21;;;;;;;;;;;;;;;24.33;52.92;100746.69;5139007;27;821;-62
2021/06/17 01:01:47;;;;;;;;;;;;;;;24.33;53.13;100746.69;5148268;27;1976;-61
2021/06/17 01:04:12;;;;;;;;;;;;;;;24.30;52.96;100741.63;5158953;27;960;-61
2021/06/17 01:06:37;;;;;;;;;;;;;;;24.31;53.18;100742.47;5158845;27;1626;-62
2021/06/17 01:09:02;;;;;;;;;;;;;;;24.28;52.97;100738.25;5158980;27;1564;-61
2021/06/17 01:11:27;;;;;;;;;;;;;;;24.27;53.17;100736.56;5158846;27;821;-61
2021/06/17 01:13:52;;;;;;;;;;;;;;;24.25;53.34;100733.16;5158876;27;1055;-61
2021/06/17 01:16:17;;;;;;;;;;;;;;;24.28;53.53;100724.63;5158963;27;884;-60
2021/06/17 01:18:42;;;;;;;;;;;;;;;24.29;53.12;100729.03;5158635;27;1067;-61
2021/06/17 01:21:07;;;;;;;;;;;;;;;24.26;53.30;100718.53;5158591;27;1968;-61
2021/06/17 01:23:32;;;;;;;;;;;;;;;24.25;53.48;100719.56;5158858;27;1007;-61
2021/06/17 01:25:57;;;;;;;;;;;;;;;24.24;53.34;100726.03;5158278;27;1662;-61
2021/06/17 01:28:23;;;;;;;;;;;;;;;24.23;53.65;100727.91;5158532;27;798;-62
2021/06/17 01:30:48;;;;;;;;;;;;;;;24.23;53.25;100729.75;5158361;27;1008;-60
2021/06/17 01:33:13;;;;;;;;;;;;;;;24.22;53.66;100734.34;5158403;27;901;-62
2021/06/17 01:35:38;;;;;;;;;;;;;;;24.23;53.79;100737.94;5158468;27;838;-62
2021/06/17 01:38:03;;;;;;;;;;;;;;;24.20;53.85;100735.59;5158316;27;798;-61
2021/06/17 01:40:28;;;;;;;;;;;;;;;24.20;53.38;100735.59;5158407;27;1893;-62
2021/06/17 01:42:53;;;;;;;;;;;;;;;24.17;53.41;100736.84;5158352;27;909;-62
2021/06/17 01:45:18;;;;;;;;;;;;;;;24.15;53.48;100738.91;5157903;27;1178;-61
2021/06/17 01:47:43;;;;;;;;;;;;;;;24.12;53.88;100736.56;5157064;27;1659;-61
2021/06/17 01:50:08;;;;;;;;;;;;;;;24.09;53.62;100739.66;5158237;27;992;-61
2021/06/17 01:52:33;;;;;;;;;;;;;;;24.11;53.95;100739.47;5158121;27;1048;-61
2021/06/17 01:54:59;;;;;;;;;;;;;;;24.13;53.60;100745.56;5158000;27;1075;-61
2021/06/17 01:57:24;;;;;;;;;;;;;;;24.15;53.66;100748.94;5157743;27;1542;-61
2021/06/17 01:59:49;;;;;;;;;;;;;;;24.12;53.29;100739.28;5138934;27;1613;-61
2021/06/17 02:02:14;;;;;;;;;;;;;;;24.08;53.65;100731.66;5157678;27;1885;-61
2021/06/17 02:04:39;;;;;;;;;;;;;;;24.04;54.05;100730.34;5157936;27;901;-61
2021/06/17 02:07:05;;;;;;;;;;;;;;;24.00;53.99;100723.63;5141724;27;1662;-61
2021/06/17 02:09:30;;;;;;;;;;;;;;;24.00;54.23;100718.19;5136836;27;936;-61
2021/06/17 02:11:55;;;;;;;;;;;;;;;24.04;53.79;100708.56;5136815;27;862;-61
2021/06/17 02:14:20;;;;;;;;;;;;;;;24.03;53.88;100709.59;5136811;27;1044;-61
2021/06/17 02:16:45;;;;;;;;;;;;;;;24.02;53.46;100697.88;5136734;27;1020;-61
2021/06/17 02:19:10;;;;;;;;;;;;;;;23.96;54.06;100686.91;5136805;27;838;-61
2021/06/17 02:21:35;;;;;;;;;;;;;;;23.97;53.66;100686.72;5136759;27;1909;-61
2021/06/17 02:24:00;;;;;;;;;;;;;;;23.95;54.06;100677.91;5136702;27;941;-61
2021/06/17 02:26:25;;;;;;;;;;;;;;;23.90;53.84;100677.63;5149197;27;1614;-61
2021/06/17 02:28:50;;;;;;;;;;;;;;;23.99;53.89;100686.53;5157242;27;668;-61
2021/06/17 02:31:15;;;;;;;;;;;;;;;24.01;53.59;100685.28;5157152;27;1055;-60
2021/06/17 02:33:40;;;;;;;;;;;;;;;24.00;53.49;100693.69;5157466;27;1573;-60
2021/06/17 02:36:05;;;;;;;;;;;;;;;23.99;53.66;100678.38;5157165;27;806;-61
2021/06/17 02:38:30;;;;;;;;;;;;;;;23.95;53.69;100672.47;5156986;27;865;-60
2021/06/17 02:40:56;;;;;;;;;;;;;;;23.90;53.51;100672.19;5157227;27;1894;-61
2021/06/17 02:43:21;;;;;;;;;;;;;;;23.88;53.70;100661.47;5157308;27;1051;-60
2021/06/17 02:45:46;;;;;;;;;;;;;;;23.87;53.51;100665.25;5147608;27;1594;-59
2021/06/17 02:48:11;;;;;;;;;;;;;;;23.91;53.44;100659.41;5136268;27;830;-60
2021/06/17 02:50:36;;;;;;;;;;;;;;;23.88;53.14;100661.47;5136224;27;794;-59
2021/06/17 02:53:01;;;;;;;;;;;;;;;23.91;53.24;100660.25;5136311;27;794;-59
2021/06/17 02:55:26;;;;;;;;;;;;;;;23.93;53.13;100668.25;5136205;27;1683;-59
2021/06/17 02:57:51;;;;;;;;;;;;;;;23.85;53.27;100656.41;5136090;27;1020;-60
2021/06/17 03:00:16;;;;;;;;;;;;;;;23.81;53.30;100660.56;5135301;27;1956;-60
2021/06/17 03:02:41;;;;;;;;;;;;;;;23.72;53.83;100658.97;5134466;27;1311;-59
2021/06/17 03:05:06;;;;;;;;;;;;;;;23.61;53.86;100656.75;5141314;27;1594;-59
2021/06/17 03:07:31;;;;;;;;;;;;;;;23.68;53.97;100657.66;5156811;27;1028;-60
2021/06/17 03:09:57;;;;;;;;;;;;;;;23.69;54.01;100655.78;5156722;27;1000;-60
2021/06/17 03:12:22;;;;;;;;;;;;;;;23.67;53.89;100652.41;5156484;27;980;-60
2021/06/17 03:14:47;;;;;;;;;;;;;;;23.61;54.20;100662.19;5156576;27;869;-60
2021/06/17 03:17:12;;;;;;;;;;;;;;;23.66;53.89;100657.00;5156428;27;829;-60
2021/06/17 03:19:37;;;;;;;;;;;;;;;23.64;53.92;100661.81;5156462;27;822;-60
2021/06/17 03:22:02;;;;;;;;;;;;;;;23.66;53.71;100662.44;5156596;27;1974;-60
2021/06/17 03:24:27;;;;;;;;;;;;;;;23.49;54.20;100647.31;5154067;27;1582;-59
2021/06/17 03:26:52;;;;;;;;;;;;;;;23.43;54.22;100645.38;5135734;27;1663;-60
2021/06/17 03:29:17;;;;;;;;;;;;;;;23.56;54.16;100653.75;5135754;28;921;-60
2021/06/17 03:31:42;;;;;;;;;;;;;;;23.68;53.78;100660.38;5135704;28;837;-60
2021/06/17 03:34:07;;;;;;;;;;;;;;;23.75;53.34;100660.47;5148244;27;1684;-60
2021/06/17 03:36:33;;;;;;;;;;;;;;;23.70;53.42;100660.19;5156262;27;968;-61
2021/06/17 03:38:58;;;;;;;;;;;;;;;23.70;53.57;100666.47;5156332;27;830;-61
2021/06/17 03:41:23;;;;;;;;;;;;;;;23.64;53.73;100661.81;5156319;27;1960;-61
2021/06/17 03:43:48;;;;;;;;;;;;;;;23.50;54.06;100657.16;5156280;27;1064;-61
2021/06/17 03:46:13;;;;;;;;;;;;;;;23.57;54.31;100652.72;5140054;27;1699;-61
2021/06/17 03:48:38;;;;;;;;;;;;;;;23.57;53.87;100657.31;5135235;28;1247;-61
2021/06/17 03:51:03;;;;;;;;;;;;;;;23.66;53.64;100661.59;5135454;28;865;-61
2021/06/17 03:53:28;;;;;;;;;;;;;;;23.64;53.69;100659.09;5135803;28;976;-61
2021/06/17 03:55:53;;;;;;;;;;;;;;;23.56;53.91;100652.91;5135605;28;928;-61
2021/06/17 03:58:19;;;;;;;;;;;;;;;23.40;54.09;100649.31;5135414;28;814;-61
2021/06/17 04:00:44;;;;;;;;;;;;;;;23.39;54.34;100647.63;5135824;27;1889;-62
2021/06/17 04:03:09;;;;;;;;;;;;;;;23.46;53.92;100639.56;5156627;27;798;-61
2021/06/17 04:05:34;;;;;;;;;;;;;;;23.43;54.34;100650.81;5155901;27;1564;-60
2021/06/17 04:07:59;;;;;;;;;;;;;;;23.53;53.95;100648.66;5156135;27;791;-61
2021/06/17 04:10:24;;;;;;;;;;;;;;;23.46;53.85;100640.41;5157634;27;905;-61
2021/06/17 04:12:49;;;;;;;;;;;;;;;23.46;53.96;100648.56;5159992;27;802;-61
2021/06/17 04:15:15;;;;;;;;;;;;;;;23.47;53.96;100647.50;5159950;27;837;-61
2021/06/17 04:17:40;;;;;;;;;;;;;;;23.53;53.89;100659.56;5159777;27;1047;-61
2021/06/17 04:20:05;;;;;;;;;;;;;;;23.64;53.21;100650.94;5159839;27;845;-61
2021/06/17 04:22:30;;;;;;;;;;;;;;;23.70;52.96;100669.19;5159932;27;1909;-62
2021/06/17 04:24:55;;;;;;;;;;;;;;;23.73;53.08;100657.94;5159608;27;1712;-62
2021/06/17 04:27:20;;;;;;;;;;;;;;;23.48;53.96;100657.34;5159614;27;1674;-62
2021/06/17 04:29:45;;;;;;;;;;;;;;;23.38;54.09;100658.69;5159793;27;794;-61
2021/06/17 04:32:12;;;;;;;;;;;;;;;23.18;54.87;100659.22;5159687;27;880;-62
2021/06/17 04:34:37;;;;;;;;;;;;;;;23.10;55.24;100659.34;5159954;27;763;-62
2021/06/17 04:37:02;;;;;;;;;;;;;;;23.28;54.72;100661.69;5148692;27;1366;-62
2021/06/17 04:39:27;;;;;;;;;;;;;;;23.19;54.86;100663.63;5150371;27;1572;-61
2021/06/17 04:41:52;;;;;;;;;;;;;;;23.38;54.33;100658.69;5158080;27;1946;-62
2021/06/17 04:44:17;;;;;;;;;;;;;;;23.48;54.15;100667.41;5158798;27;1358;-61
2021/06/17 04:46:42;;;;;;;;;;;;;;;23.32;54.93;100664.84;5156747;27;1433;-61
2021/06/17 04:49:13;;;;;;;;;;;;;;;23.40;54.29;100662.91;5158759;27;1291;-60
2021/06/17 04:51:38;;;;;;;;;;;;;;;23.28;54.87;100660.84;5159027;27;1417;-62
2021/06/17 04:54:03;;;;;;;;;;;;;;;23.30;54.87;100664.19;5156373;27;1394;-62
2021/06/17 04:56:28;;;;;;;;;;;;;;;23.15;55.35;100659.59;5158571;27;1425;-60
2021/06/17 04:58:53;;;;;;;;;;;;;;;23.30;54.87;100656.03;5158283;27;1414;-61
2021/06/17 05:01:18;;;;;;;;;;;;;;;23.47;54.41;100652.09;5158514;27;1901;-61
2021/06/17 05:03:43;;;;;;;;;;;;;;;23.52;54.47;100650.56;5158861;27;852;-61
2021/06/17 05:06:09;;;;;;;;;;;;;;;23.58;54.13;100646.25;5158988;27;920;-61
2021/06/17 05:11:18;;;;;;;;;;;;;;;23.82;55.25;100640.50;5148362;27;1435;-61
2021/06/17 05:13:43;;;;;;;;;;;;;;;23.86;55.83;100641.78;5146122;27;1505;-62
2021/06/17 05:16:08;;;;;;;;;;;;;;;23.92;55.48;100642.06;5158475;27;1626;-61
2021/06/17 05:18:34;;;;;;;;;;;;;;;24.04;54.88;100643.22;5158815;27;836;-62
2021/06/17 05:20:59;;;;;;;;;;;;;;;24.02;54.16;100648.88;5148979;27;1910;-61
2021/06/17 05:23:24;;;;;;;;;;;;;;;23.92;54.34;100650.22;5141340;27;1569;-61
2021/06/17 05:25:49;;;;;;;;;;;;;;;24.03;54.27;100652.44;5146122;27;1570;-61
2021/06/17 05:28:14;;;;;;;;;;;;;;;24.11;53.74;100646.88;5145481;27;1323;-61
2021/06/17 05:30:39;;;;;;;;;;;;;;;24.08;53.71;100645.38;5129195;27;1307;-61
2021/06/17 05:33:04;;;;;;;;;;;;;;;24.15;53.45;100656.38;5144526;27;1317;-61
2021/06/17 05:35:30;;;;;;;;;;;;;;;24.26;53.21;100642.25;5141171;27;1514;-61
2021/06/17 05:37:55;;;;;;;;;;;;;;;24.33;53.47;100653.25;5147362;27;1387;-62
2021/06/17 05:40:20;;;;;;;;;;;;;;;24.46;52.70;100659.66;5147173;27;1963;-61
2021/06/17 05:42:45;;;;;;;;;;;;;;;24.50;52.68;100654.66;5151377;27;1788;-62
2021/06/17 05:45:10;;;;;;;;;;;;;;;24.51;53.38;100659.94;5158059;27;1540;-61
2021/06/17 05:47:35;;;;;;;;;;;;;;;24.56;52.69;100660.16;5158307;27;1004;-62
2021/06/17 05:50:01;;;;;;;;;;;;;;;24.63;52.55;100659.38;5158244;27;960;-61
2021/06/17 05:52:26;;;;;;;;;;;;;;;24.66;52.57;100665.31;5158197;27;856;-63
2021/06/17 05:54:51;;;;;;;;;;;;;;;24.63;52.63;100670.28;5156340;27;1885;-62
2021/06/17 05:57:16;;;;;;;;;;;;;;;24.66;53.14;100667.19;5153555;27;1337;-62
2021/06/17 05:59:41;;;;;;;;;;;;;;;24.67;52.62;100666.16;5146669;27;1726;-62
2021/06/17 06:02:06;;;;;;;;;;;;;;;24.66;52.66;100662.56;5150179;27;1905;-61
2021/06/17 06:04:31;;;;;;;;;;;;;;;24.66;52.65;100659.84;5136756;27;1667;-62
2021/06/17 06:06:57;;;;;;;;;;;;;;;24.66;52.79;100668.03;5137005;27;929;-63
2021/06/17 06:09:23;;;;;;;;;;;;;;;24.67;52.65;100664.25;5136807;27;818;-62
2021/06/17 06:11:48;;;;;;;;;;;;;;;24.65;52.88;100663.63;5137502;27;817;-63
2021/06/17 06:14:13;;;;;;;;;;;;;;;24.66;52.30;100659.00;5148486;27;1756;-63
2021/06/17 06:16:38;;;;;;;;;;;;;;;24.66;52.48;100659.84;5158043;27;955;-63
2021/06/17 06:19:06;;;;;;;;;;;;;;;24.64;52.99;100656.47;5158149;27;870;-63
2021/06/17 06:21:31;;;;;;;;;;;;;;;24.65;52.91;100651.88;5158057;27;1964;-63
2021/06/17 06:23:56;;;;;;;;;;;;;;;24.64;52.59;100661.91;5157156;27;862;-62
2021/06/17 06:26:21;;;;;;;;;;;;;;;24.64;52.72;100667.38;5141810;27;1671;-62
2021/06/17 06:28:46;;;;;;;;;;;;;;;24.62;52.67;100669.44;5136634;27;1741;-63
2021/06/17 06:31:12;;;;;;;;;;;;;;;24.64;52.66;100671.97;5136462;27;1008;-62
2021/06/17 06:33:38;;;;;;;;;;;;;;;24.64;52.25;100671.97;5144862;27;1594;-62
2021/06/17 06:36:03;;;;;;;;;;;;;;;24.63;52.37;100671.13;5156343;27;913;-63
2021/06/17 06:38:28;;;;;;;;;;;;;;;24.62;52.09;100660.44;5149939;27;1495;-62
2021/06/17 06:40:53;;;;;;;;;;;;;;;24.61;52.13;100672.38;5149843;27;1972;-62
2021/06/17 06:43:18;;;;;;;;;;;;;;;24.58;52.02;100679.03;5156737;27;845;-63
2021/06/17 06:45:43;;;;;;;;;;;;;;;24.55;52.47;100674.81;5156843;27;971;-62
2021/06/17 06:48:08;;;;;;;;;;;;;;;24.55;52.15;100680.28;5155632;27;1439;-62
2021/06/17 06:50:33;;;;;;;;;;;;;;;24.55;52.15;100682.16;5137461;27;1488;-63
2021/06/17 06:52:58;;;;;;;;;;;;;;;24.55;52.14;100680.28;5141305;27;1685;-62
2021/06/17 06:55:24;;;;;;;;;;;;;;;24.54;52.11;100681.31;5156896;27;1059;-62
2021/06/17 06:57:49;;;;;;;;;;;;;;;24.53;51.83;100676.09;5148015;27;1403;-62
2021/06/17 07:00:14;;;;;;;;;;;;;;;24.51;51.97;100692.63;5141940;27;1909;-63
2021/06/17 07:02:39;;;;;;;;;;;;;;;24.53;51.82;100682.38;5144059;27;1334;-62
2021/06/17 07:05:04;;;;;;;;;;;;;;;24.52;51.91;100690.75;5143039;27;1402;-63
2021/06/17 07:07:29;;;;;;;;;;;;;;;24.55;51.58;100698.50;5143881;27;1414;-63
2021/06/17 07:09:54;;;;;;;;;;;;;;;24.55;51.65;100704.78;5142035;27;1324;-63
2021/06/17 07:12:19;;;;;;;;;;;;;;;24.58;52.15;100701.69;5146641;27;1801;-62
2021/06/17 07:14:45;;;;;;;;;;;;;;;24.59;51.98;100699.81;5140160;27;1520;-64
2021/06/17 07:17:10;;;;;;;;;;;;;;;24.62;52.06;100701.31;5151823;27;1179;-63
2021/06/17 07:19:35;;;;;;;;;;;;;;;24.63;51.65;100713.91;5147311;27;1634;-63
2021/06/17 07:22:00;;;;;;;;;;;;;;;24.64;51.84;100704.69;5143349;27;1975;-63
2021/06/17 07:24:25;;;;;;;;;;;;;;;24.65;51.50;100717.28;5138904;27;1554;-63
2021/06/17 07:26:52;;;;;;;;;;;;;;;24.65;52.15;100720.00;5136258;28;1566;-63
2021/06/17 07:29:17;;;;;;;;;;;;;;;24.66;52.02;100716.22;5135902;28;830;-63
2021/06/17 07:31:42;;;;;;;;;;;;;;;24.66;51.79;100713.50;5135414;28;846;-63
2021/06/17 07:34:10;;;;;;;;;;;;;;;24.67;52.13;100709.75;5146774;27;2359;-63
2021/06/17 07:36:35;;;;;;;;;;;;;;;24.68;51.59;100716.88;5156647;27;763;-63
2021/06/17 07:39:00;;;;;;;;;;;;;;;24.69;51.88;100724.03;5156339;27;802;-63
2021/06/17 07:41:25;;;;;;;;;;;;;;;24.70;51.85;100729.28;5156279;27;1905;-61
2021/06/17 07:43:50;;;;;;;;;;;;;;;24.70;51.19;100723.00;5141337;27;1627;-63
2021/06/17 07:46:15;;;;;;;;;;;;;;;24.71;51.36;100724.69;5156933;27;1725;-63
2021/06/17 07:48:40;;;;;;;;;;;;;;;24.71;51.17;100727.41;5160665;27;902;-64
2021/06/17 07:51:07;;;;;;;;;;;;;;;24.71;51.43;100732.84;5160351;27;833;-63
2021/06/17 07:53:32;;;;;;;;;;;;;;;24.71;50.88;100727.41;5160973;27;778;-63
2021/06/17 07:55:57;;;;;;;;;;;;;;;24.71;50.98;100717.34;5160312;27;1012;-63
2021/06/17 07:58:22;;;;;;;;;;;;;;;24.72;50.99;100707.28;5160172;27;991;-63
2021/06/17 08:00:47;;;;;;;;;;;;;;;24.73;50.82;100706.22;5160052;27;1950;-63
2021/06/17 08:03:12;;;;;;;;;;;;;;;24.73;51.35;100704.34;5160424;27;1345;-63
2021/06/17 08:05:38;;;;;;;;;;;;;;;24.75;51.32;100706.88;5160309;27;802;-63
2021/06/17 08:08:03;;;;;;;;;;;;;;;24.76;51.35;100716.75;5160009;27;822;-63
2021/06/17 08:10:28;;;;;;;;;;;;;;;24.76;51.45;100739.38;5160143;27;783;-63
2021/06/17 08:12:53;;;;;;;;;;;;;;;24.78;51.17;100744.66;5153405;27;1688;-63
2021/06/17 08:15:18;;;;;;;;;;;;;;;24.78;51.56;100728.28;5139209;27;1001;-63
2021/06/17 08:17:43;;;;;;;;;;;;;;;24.80;51.38;100742.56;5139084;27;870;-63
2021/06/17 08:20:09;;;;;;;;;;;;;;;24.80;51.51;100734.41;5139470;27;993;-63
2021/06/17 08:22:34;;;;;;;;;;;;;;;24.81;51.18;100728.75;5139146;27;1890;-63
2021/06/17 08:24:59;;;;;;;;;;;;;;;24.83;51.10;100734.00;5120469;27;707;-63
2021/06/17 08:27:24;;;;;;;;;;;;;;;24.83;51.20;100717.66;5138336;27;1048;-63
2021/06/17 08:29:49;;;;;;;;;;;;;;;24.84;51.51;100730.25;5138961;27;885;-63
2021/06/17 08:32:14;;;;;;;;;;;;;;;24.85;51.42;100708.25;5138830;27;873;-63
2021/06/17 08:34:39;;;;;;;;;;;;;;;24.87;51.50;100711.63;5138821;27;870;-63
2021/06/17 08:37:05;;;;;;;;;;;;;;;24.88;51.72;100701.56;5138821;27;830;-63
2021/06/17 08:39:30;;;;;;;;;;;;;;;24.88;51.36;100713.31;5138535;27;846;-63
2021/06/17 08:41:55;;;;;;;;;;;;;;;24.89;51.71;100703.25;5139235;27;1897;-63
2021/06/17 08:44:20;;;;;;;;;;;;;;;24.90;51.56;100694.84;5156801;27;1655;-63
2021/06/17 08:46:45;;;;;;;;;;;;;;;24.93;51.78;100699.06;5159289;27;856;-63
2021/06/17 08:49:11;;;;;;;;;;;;;;;24.94;51.74;100695.34;5159674;27;1075;-63
2021/06/17 08:51:40;;;;;;;;;;;;;;;24.96;51.73;100701.44;5159264;27;916;-63
2021/06/17 08:54:05;;;;;;;;;;;;;;;24.96;51.48;100693.25;5159462;27;774;-63
2021/06/17 08:56:30;;;;;;;;;;;;;;;24.98;51.61;100696.63;5157928;27;846;-63
2021/06/17 08:58:55;;;;;;;;;;;;;;;24.99;51.21;100692.88;5148706;27;2698;-63
2021/06/17 09:01:21;;;;;;;;;;;;;;;24.99;52.07;100684.69;5155400;27;1960;-63
2021/06/17 09:03:46;;;;;;;;;;;;;;;24.99;51.89;100681.97;5133589;27;1455;-61
2021/06/17 09:06:11;;;;;;;;;;;;;;;25.00;52.19;100669.19;5134329;27;1307;-63
2021/06/17 09:08:36;;;;;;;;;;;;;;;24.99;52.58;100670.22;5132324;27;1303;-63
2021/06/17 09:11:02;;;;;;;;;;;;;;;24.98;52.40;100661.19;5133946;27;1338;-63
2021/06/17 09:13:27;;;;;;;;;;;;;;;24.99;53.03;100665.59;5135054;27;1461;-63
2021/06/17 09:15:54;;;;;;;;;;;;;;;24.99;52.87;100654.69;5136250;27;1601;-62
2021/06/17 09:18:19;;;;;;;;;;;;;;;25.00;52.82;100661.84;5136662;27;1656;-62
2021/06/17 09:20:44;;;;;;;;;;;;;;;25.03;52.98;100649.69;5132432;27;1973;-63
2021/06/17 09:23:09;;;;;;;;;;;;;;;25.03;53.24;100644.25;5136610;27;1670;-63
2021/06/17 09:25:34;;;;;;;;;;;;;;;25.01;52.99;100640.88;5124809;27;2094;-63
2021/06/17 09:27:59;;;;;;;;;;;;;;;25.03;53.28;100639.63;5124219;27;1538;-63
2021/06/17 09:30:24;;;;;;;;;;;;;;;25.04;52.70;100630.41;5133089;27;1285;-62
2021/06/17 09:32:50;;;;;;;;;;;;;;;25.05;52.70;100610.28;5118807;27;1636;-63
2021/06/17 09:35:15;;;;;;;;;;;;;;;25.06;53.19;100611.97;5128350;27;1878;-63
2021/06/17 09:37:40;;;;;;;;;;;;;;;25.06;52.73;100616.59;5123794;27;1869;-63
2021/06/17 09:40:05;;;;;;;;;;;;;;;25.09;53.39;100621.63;5126717;27;1762;-63
2021/06/17 09:42:30;;;;;;;;;;;;;;;25.09;53.08;100606.09;5124930;27;1889;-63
2021/06/17 09:44:56;;;;;;;;;;;;;;;25.08;52.88;100590.78;5116784;28;1826;-63
2021/06/17 09:47:30;;;;;;;;;;;;;;;25.10;53.15;100596.88;5116693;28;2135;-63
2021/06/17 09:49:55;;;;;;;;;;;;;;;25.12;52.79;100605.69;5116720;28;1797;-63
2021/06/17 09:52:21;;;;;;;;;;;;;;;25.14;52.80;100609.06;5133064;27;1563;-63
2021/06/17 09:54:46;;;;;;;;;;;;;;;25.16;52.71;100615.19;5134025;27;1709;-63
2021/06/17 09:57:11;;;;;;;;;;;;;;;25.17;52.75;100626.94;5135560;27;1441;-62
2021/06/17 09:59:36;;;;;;;;;;;;;;;25.18;52.91;100634.06;5135222;27;1198;-63
2021/06/17 10:02:01;;;;;;;;;;;;;;;25.19;52.57;100633.88;5140321;27;1962;-61
2021/06/17 10:04:27;;;;;;;;;;;;;;;25.20;53.11;100646.47;5155396;27;1452;-63
2021/06/17 10:06:52;;;;;;;;;;;;;;;25.20;52.92;100643.75;5156279;27;1515;-63
2021/06/17 10:09:17;;;;;;;;;;;;;;;25.23;52.72;100651.53;5153482;27;1278;-63
2021/06/17 10:11:42;;;;;;;;;;;;;;;25.25;52.95;100651.34;5156265;27;1617;-63
2021/06/17 10:14:08;;;;;;;;;;;;;;;25.27;52.79;100649.22;5154529;27;1597;-63
2021/06/17 10:16:33;;;;;;;;;;;;;;;25.29;52.08;100643.56;5150415;27;1645;-63
2021/06/17 10:18:58;;;;;;;;;;;;;;;25.33;52.29;100653.03;5147488;27;1616;-63
2021/06/17 10:21:23;;;;;;;;;;;;;;;25.36;52.53;100660.84;5150557;27;1976;-63
2021/06/17 10:23:50;;;;;;;;;;;;;;;25.37;52.60;100671.56;5151489;27;1718;-63
2021/06/17 10:26:19;;;;;;;;;;;;;;;25.40;52.11;100673.03;5155039;27;1725;-63
2021/06/17 10:28:44;;;;;;;;;;;;;;;25.42;52.72;100668.22;5154450;27;1720;-63
2021/06/17 10:31:09;;;;;;;;;;;;;;;25.46;52.11;100670.34;5155320;27;1524;-63
2021/06/17 10:33:36;;;;;;;;;;;;;;;25.50;52.11;100666.16;5156743;27;1650;-63
2021/06/17 10:36:01;;;;;;;;;;;;;;;25.59;51.88;100664.13;5156312;27;1702;-63
2021/06/17 10:38:26;;;;;;;;;;;;;;;25.62;52.01;100661.00;5156403;27;1643;-63
2021/06/17 10:40:55;;;;;;;;;;;;;;;25.62;52.13;100666.47;5155826;27;1889;-63
2021/06/17 10:43:20;;;;;;;;;;;;;;;25.65;51.91;100666.06;5157376;27;865;-63
2021/06/17 10:45:45;;;;;;;;;;;;;;;25.73;51.62;100668.63;5156757;27;1616;-63
2021/06/17 10:48:14;;;;;;;;;;;;;;;25.73;51.76;100671.38;5156554;27;1558;-63
2021/06/17 10:50:39;;;;;;;;;;;;;;;25.76;51.78;100683.78;5152131;27;1689;-63
2021/06/17 10:53:04;;;;;;;;;;;;;;;25.77;51.50;100678.13;5153546;27;1684;-62
2021/06/17 10:55:29;;;;;;;;;;;;;;;25.74;52.55;100683.97;5156671;27;1721;-63
2021/06/17 10:57:54;;;;;;;;;;;;;;;25.80;52.74;100694.06;5153126;27;1529;-63
2021/06/17 11:00:20;;;;;;;;;;;;;;;25.90;53.00;100683.63;5156890;27;1511;-63
2021/06/17 11:02:45;;;;;;;;;;;;;;;25.97;53.04;100686.41;5145591;27;1959;-63
2021/06/17 11:05:10;;;;;;;;;;;;;;;26.04;52.98;100686.41;5157040;27;1416;-63
2021/06/17 11:07:35;;;;;;;;;;;;;;;26.10;53.08;100691.91;5154237;27;1779;-63
2021/06/17 11:10:02;;;;;;;;;;;;;;;26.15;52.98;100702.22;5150764;27;1576;-63
2021/06/17 11:12:28;;;;;;;;;;;;;;;26.18;53.27;100712.72;5155601;27;1538;-63
2021/06/17 11:14:57;;;;;;;;;;;;;;;26.21;53.01;100709.56;5153519;27;1615;-64
2021/06/17 11:17:22;;;;;;;;;;;;;;;26.27;52.73;100715.06;5148497;27;1686;-63
2021/06/17 11:19:47;;;;;;;;;;;;;;;26.30;52.81;100719.31;5155923;27;1737;-63
2021/06/17 11:22:12;;;;;;;;;;;;;;;26.36;52.72;100721.22;5139849;27;1958;-63
2021/06/17 11:24:38;;;;;;;;;;;;;;;26.44;52.43;100714.72;5155057;27;1383;-63
2021/06/17 11:27:03;;;;;;;;;;;;;;;26.48;52.47;100724.22;5156085;27;1423;-63
2021/06/17 11:29:28;;;;;;;;;;;;;;;26.53;52.32;100725.25;5155663;27;1480;-63
2021/06/17 11:31:53;;;;;;;;;;;;;;;26.60;52.08;100733.47;5148400;27;1807;-63
2021/06/17 11:34:18;;;;;;;;;;;;;;;26.62;52.10;100739.59;5146670;27;1597;-63
2021/06/17 11:36:43;;;;;;;;;;;;;;;26.65;51.88;100738.34;5145719;27;1630;-63
2021/06/17 11:39:08;;;;;;;;;;;;;;;26.69;51.66;100739.63;5156473;27;1673;-62
2021/06/17 11:41:33;;;;;;;;;;;;;;;26.71;51.47;100726.53;5155784;27;1894;-63
2021/06/17 11:43:59;;;;;;;;;;;;;;;26.74;51.45;100737.06;5156547;27;1399;-63
2021/06/17 11:46:25;;;;;;;;;;;;;;;26.73;51.35;100732.66;5156307;27;1493;-63
2021/06/17 11:48:50;;;;;;;;;;;;;;;26.75;51.61;100739.59;5153599;27;1461;-63
2021/06/17 11:51:15;;;;;;;;;;;;;;;26.77;51.68;100742.13;5156454;27;1535;-63
2021/06/17 11:53:40;;;;;;;;;;;;;;;26.77;51.69;100734.78;5153038;27;1556;-63
2021/06/17 11:56:05;;;;;;;;;;;;;;;26.80;51.66;100734.38;5147069;27;1800;-64
2021/06/17 11:58:37;;;;;;;;;;;;;;;26.83;52.01;100736.69;5142868;27;2408;-61
2021/06/17 12:01:02;;;;;;;;;;;;;;;26.88;51.83;100746.97;5145522;27;1946;-62
2021/06/17 12:03:27;;;;;;;;;;;;;;;26.92;51.71;100735.41;5122659;27;2861;-63
2021/06/17 12:05:52;;;;;;;;;;;;;;;26.95;51.62;100735.03;5128577;28;1901;-62
2021/06/17 12:08:17;;;;;;;;;;;;;;;26.96;51.54;100733.16;5127057;28;1487;-62
2021/06/17 12:10:45;;;;;;;;;;;;;;;27.00;51.75;100733.56;5122052;28;1687;-62
2021/06/17 12:13:10;;;;;;;;;;;;;;;27.02;51.74;100735.06;5122792;28;1493;-62
2021/06/17 12:15:36;;;;;;;;;;;;;;;27.04;51.55;100735.69;5117941;28;1786;-62
2021/06/17 12:18:01;;;;;;;;;;;;;;;27.05;51.76;100739.28;5123080;28;1591;-62
2021/06/17 12:20:26;;;;;;;;;;;;;;;27.11;51.32;100744.72;5134850;28;1964;-62
2021/06/17 12:22:52;;;;;;;;;;;;;;;27.15;51.40;100729.56;5125241;28;1710;-62
2021/06/17 12:25:17;;;;;;;;;;;;;;;27.10;52.46;100743.03;5124514;28;1728;-61
2021/06/17 12:27:42;;;;;;;;;;;;;;;27.01;54.20;100738.84;5117888;28;1666;-63
2021/06/17 12:30:07;;;;;;;;;;;;;;;26.93;54.79;100744.47;5114972;28;1869;-62
2021/06/17 12:32:32;;;;;;;;;;;;;;;26.76;55.36;100746.75;5127726;27;1716;-62
2021/06/17 12:34:57;;;;;;;;;;;;;;;26.71;56.60;100749.25;5109651;27;2474;-61
2021/06/17 12:37:22;;;;;;;;;;;;;;;26.67;56.23;100748.03;5127167;27;1816;-62
2021/06/17 12:39:47;;;;;;;;;;;;;;;26.72;57.30;100756.41;5130740;27;1645;-62
2021/06/17 12:42:12;;;;;;;;;;;;;;;26.65;55.66;100750.13;5121470;27;1890;-62